^^
Station Historical Data
Daily Summary for June 14, 2018 Units:  Both    English   Metric
« Previous Day
Next Day »
Daily Weekly Monthly Yearly Custom
  High: Low: Average:
Temperature: TemperatureF °F /  -17.8 °C 72.2 °F /  22.3 °C 84 °F /  28.9 °C
Dew Point: DewpointF °F /  -17.8 °C 56.9 °F /  13.8 °C 67 °F /  19.4 °C
Humidity: Humidity% 40% 58%
Wind Speed: WindSpeedMPHmph /  0km/h - 6.6mph /  10.6km/h
Wind Gust: WindSpeedGustMPHmph /  0km/h - -
Wind- - SSE
Pressure: PressureIn in /  0 hPa 29.73 in /  1006.7 hPa -
Precipitation: 0.00 in /  0 mm    
Historical Graphs
 
 
Tabular Data for June 14, 2018
Time Temperature Dew Point Pressure Wind Wind Speed Wind Gust Humidity Rainfall Rate (Hourly)
TemperatureF °F /  -17.8 °C DewpointF °F /  -17.8 °C PressureInin /  0hPa Calm     Humidity% HourlyPrecipInin /  0mm
00:04 74.7 °F /  23.7 °C 56.9 °F /  13.8 °C 29.90in /  1012.4hPa SE 3.5mph /  5.6km/h 2.2mph /  3.5km/h 54% 0.00in /  0mm
00:09 74.6 °F /  23.7 °C 56.9 °F /  13.8 °C 29.90in /  1012.4hPa SE 3.5mph /  5.6km/h 1.7mph /  2.7km/h 54% 0.00in /  0mm
00:14 74.6 °F /  23.7 °C 57.4 °F /  14.1 °C 29.90in /  1012.4hPa East 2.3mph /  3.7km/h 1.3mph /  2.1km/h 55% 0.00in /  0mm
00:19 74.5 °F /  23.6 °C 57.3 °F /  14.1 °C 29.89in /  1012.1hPa South 3.5mph /  5.6km/h 2.9mph /  4.7km/h 55% 0.00in /  0mm
00:24 74.5 °F /  23.6 °C 57.3 °F /  14.1 °C 29.90in /  1012.4hPa SE 4.6mph /  7.4km/h 1.4mph /  2.3km/h 55% 0.00in /  0mm
00:29 74.4 °F /  23.6 °C 57.2 °F /  14 °C 29.89in /  1012.1hPa SE 3.5mph /  5.6km/h 0.9mph /  1.4km/h 55% 0.00in /  0mm
00:34 74.4 °F /  23.6 °C 57.2 °F /  14 °C 29.90in /  1012.4hPa ENE 4.6mph /  7.4km/h 3.6mph /  5.8km/h 55% 0.00in /  0mm
00:39 74.4 °F /  23.6 °C 57.2 °F /  14 °C 29.90in /  1012.4hPa East 3.5mph /  5.6km/h 1.3mph /  2.1km/h 55% 0.00in /  0mm
00:44 74.4 °F /  23.6 °C 57.2 °F /  14 °C 29.90in /  1012.4hPa SE 3.5mph /  5.6km/h 1.3mph /  2.1km/h 55% 0.00in /  0mm
00:49 74.3 °F /  23.5 °C 57.1 °F /  13.9 °C 29.90in /  1012.4hPa SSE 3.5mph /  5.6km/h 1.5mph /  2.4km/h 55% 0.00in /  0mm
00:54 74.3 °F /  23.5 °C 57.1 °F /  13.9 °C 29.90in /  1012.4hPa SE 4.0mph /  6.4km/h 1.9mph /  3.1km/h 55% 0.00in /  0mm
00:59 74.2 °F /  23.4 °C 57.5 °F /  14.2 °C 29.90in /  1012.4hPa SE 2.3mph /  3.7km/h 1.9mph /  3.1km/h 56% 0.00in /  0mm
01:04 74.1 °F /  23.4 °C 57.4 °F /  14.1 °C 29.90in /  1012.4hPa ESE 5.8mph /  9.3km/h 1.9mph /  3.1km/h 56% 0.00in /  0mm
01:09 74.0 °F /  23.3 °C 57.3 °F /  14.1 °C 29.90in /  1012.4hPa SSE 2.3mph /  3.7km/h 1.7mph /  2.7km/h 56% 0.00in /  0mm
01:14 73.9 °F /  23.3 °C 57.7 °F /  14.3 °C 29.90in /  1012.4hPa SSE 3.5mph /  5.6km/h 0.2mph /  0.3km/h 57% 0.00in /  0mm
01:19 73.9 °F /  23.3 °C 57.7 °F /  14.3 °C 29.90in /  1012.4hPa SSE 3.5mph /  5.6km/h 1.6mph /  2.6km/h 57% 0.00in /  0mm
01:24 73.8 °F /  23.2 °C 57.6 °F /  14.2 °C 29.90in /  1012.4hPa SE 1.2mph /  1.9km/h 0.7mph /  1.1km/h 57% 0.00in /  0mm
01:29 73.7 °F /  23.2 °C 58.0 °F /  14.4 °C 29.89in /  1012.1hPa SE 3.5mph /  5.6km/h 1.2mph /  1.9km/h 58% 0.00in /  0mm
01:34 73.7 °F /  23.2 °C 58.0 °F /  14.4 °C 29.89in /  1012.1hPa SSE 3.5mph /  5.6km/h 1.9mph /  3.1km/h 58% 0.00in /  0mm
01:39 73.6 °F /  23.1 °C 57.9 °F /  14.4 °C 29.89in /  1012.1hPa SE 8.1mph /  13km/h 3.2mph /  5.1km/h 58% 0.00in /  0mm
01:44 73.6 °F /  23.1 °C 57.9 °F /  14.4 °C 29.89in /  1012.1hPa SE 6.9mph /  11.1km/h 1.3mph /  2.1km/h 58% 0.00in /  0mm
01:49 73.6 °F /  23.1 °C 57.9 °F /  14.4 °C 29.89in /  1012.1hPa SE 2.3mph /  3.7km/h 1.2mph /  1.9km/h 58% 0.00in /  0mm
01:54 73.7 °F /  23.2 °C 58.5 °F /  14.7 °C 29.89in /  1012.1hPa ESE 3.5mph /  5.6km/h 1.2mph /  1.9km/h 59% 0.00in /  0mm
01:59 73.7 °F /  23.2 °C 58.5 °F /  14.7 °C 29.89in /  1012.1hPa ESE 3.5mph /  5.6km/h 1.7mph /  2.7km/h 59% 0.00in /  0mm
02:04 73.7 °F /  23.2 °C 58.5 °F /  14.7 °C 29.89in /  1012.1hPa ESE 1.2mph /  1.9km/h 1.1mph /  1.8km/h 59% 0.00in /  0mm
02:09 73.6 °F /  23.1 °C 58.4 °F /  14.7 °C 29.89in /  1012.1hPa ESE 2.0mph /  3.2km/h 0.8mph /  1.3km/h 59% 0.00in /  0mm
02:14 73.7 °F /  23.2 °C 58.5 °F /  14.7 °C 29.89in /  1012.1hPa ESE 4.6mph /  7.4km/h 2.3mph /  3.7km/h 59% 0.00in /  0mm
02:19 73.7 °F /  23.2 °C 58.5 °F /  14.7 °C 29.89in /  1012.1hPa South 1.2mph /  1.9km/h 0.8mph /  1.3km/h 59% 0.00in /  0mm
02:24 73.8 °F /  23.2 °C 59.0 °F /  15 °C 29.88in /  1011.7hPa ESE 2.3mph /  3.7km/h 0.7mph /  1.1km/h 60% 0.00in /  0mm
02:29 73.7 °F /  23.2 °C 58.9 °F /  14.9 °C 29.88in /  1011.7hPa SSE 4.6mph /  7.4km/h 3.1mph /  5km/h 60% 0.00in /  0mm
02:34 73.7 °F /  23.2 °C 58.9 °F /  14.9 °C 29.88in /  1011.7hPa SSE 8.1mph /  13km/h 3.5mph /  5.6km/h 60% 0.00in /  0mm
02:38 73.7 °F /  23.2 °C 59.4 °F /  15.2 °C 29.88in /  1011.7hPa ESE 2.3mph /  3.7km/h 0.9mph /  1.4km/h 61% 0.00in /  0mm
02:44 73.7 °F /  23.2 °C 59.4 °F /  15.2 °C 29.88in /  1011.7hPa ESE 3.5mph /  5.6km/h 1.0mph /  1.6km/h 61% 0.00in /  0mm
02:49 73.6 °F /  23.1 °C 59.8 °F /  15.4 °C 29.88in /  1011.7hPa SSE 3.5mph /  5.6km/h 1.0mph /  1.6km/h 62% 0.00in /  0mm
02:54 73.6 °F /  23.1 °C 59.8 °F /  15.4 °C 29.88in /  1011.7hPa SE 3.5mph /  5.6km/h 1.2mph /  1.9km/h 62% 0.00in /  0mm
02:59 73.6 °F /  23.1 °C 59.8 °F /  15.4 °C 29.87in /  1011.4hPa SE 3.5mph /  5.6km/h 1.8mph /  2.9km/h 62% 0.00in /  0mm
03:04 73.5 °F /  23.1 °C 60.1 °F /  15.6 °C 29.87in /  1011.4hPa SSE 9.2mph /  14.8km/h 2.8mph /  4.5km/h 63% 0.00in /  0mm
03:09 73.5 °F /  23.1 °C 60.6 °F /  15.9 °C 29.87in /  1011.4hPa SE 2.0mph /  3.2km/h 1.0mph /  1.6km/h 64% 0.00in /  0mm
03:14 73.4 °F /  23 °C 60.5 °F /  15.8 °C 29.87in /  1011.4hPa SE 3.5mph /  5.6km/h 1.5mph /  2.4km/h 64% 0.00in /  0mm
03:19 73.4 °F /  23 °C 60.9 °F /  16.1 °C 29.87in /  1011.4hPa SE 3.5mph /  5.6km/h 2.4mph /  3.9km/h 65% 0.00in /  0mm
03:24 73.3 °F /  22.9 °C 60.8 °F /  16 °C 29.87in /  1011.4hPa SSE 5.8mph /  9.3km/h 3.1mph /  5km/h 65% 0.00in /  0mm
03:29 73.2 °F /  22.9 °C 61.2 °F /  16.2 °C 29.86in /  1011.1hPa SSE 4.6mph /  7.4km/h 2.0mph /  3.2km/h 66% 0.00in /  0mm
03:34 73.1 °F /  22.8 °C 61.1 °F /  16.2 °C 29.86in /  1011.1hPa ESE 3.5mph /  5.6km/h 3.3mph /  5.3km/h 66% 0.00in /  0mm
03:39 73.1 °F /  22.8 °C 61.5 °F /  16.4 °C 29.86in /  1011.1hPa SE 4.6mph /  7.4km/h 2.0mph /  3.2km/h 67% 0.00in /  0mm
03:44 73.0 °F /  22.8 °C 61.4 °F /  16.3 °C 29.86in /  1011.1hPa SE 3.5mph /  5.6km/h 2.0mph /  3.2km/h 67% 0.00in /  0mm
03:49 73.0 °F /  22.8 °C 61.8 °F /  16.6 °C 29.86in /  1011.1hPa SE 6.9mph /  11.1km/h 2.2mph /  3.5km/h 68% 0.00in /  0mm
03:54 72.8 °F /  22.7 °C 61.6 °F /  16.4 °C 29.86in /  1011.1hPa SE 3.5mph /  5.6km/h 2.2mph /  3.5km/h 68% 0.00in /  0mm
03:59 72.8 °F /  22.7 °C 62.0 °F /  16.7 °C 29.86in /  1011.1hPa SE 6.9mph /  11.1km/h 0.5mph /  0.8km/h 69% 0.00in /  0mm
04:04 72.7 °F /  22.6 °C 62.3 °F /  16.8 °C 29.86in /  1011.1hPa SE 4.6mph /  7.4km/h 2.2mph /  3.5km/h 70% 0.00in /  0mm
04:09 72.6 °F /  22.6 °C 62.3 °F /  16.8 °C 29.86in /  1011.1hPa SSE 3.5mph /  5.6km/h 1.8mph /  2.9km/h 70% 0.00in /  0mm
04:14 72.5 °F /  22.5 °C 62.6 °F /  17 °C 29.85in /  1010.7hPa SE 3.5mph /  5.6km/h 1.0mph /  1.6km/h 71% 0.00in /  0mm
04:19 72.5 °F /  22.5 °C 62.6 °F /  17 °C 29.85in /  1010.7hPa East 2.3mph /  3.7km/h 2.1mph /  3.4km/h 71% 0.00in /  0mm
04:24 72.5 °F /  22.5 °C 63.0 °F /  17.2 °C 29.85in /  1010.7hPa ESE 8.0mph /  12.9km/h 2.4mph /  3.9km/h 72% 0.00in /  0mm
04:29 72.4 °F /  22.4 °C 63.3 °F /  17.4 °C 29.85in /  1010.7hPa SE 3.5mph /  5.6km/h 2.1mph /  3.4km/h 73% 0.00in /  0mm
04:34 72.4 °F /  22.4 °C 63.3 °F /  17.4 °C 29.85in /  1010.7hPa SE 3.5mph /  5.6km/h 2.0mph /  3.2km/h 73% 0.00in /  0mm
04:39 72.4 °F /  22.4 °C 63.6 °F /  17.6 °C 29.85in /  1010.7hPa SE 3.5mph /  5.6km/h 1.4mph /  2.3km/h 74% 0.00in /  0mm
04:44 72.4 °F /  22.4 °C 63.6 °F /  17.6 °C 29.85in /  1010.7hPa SE 3.5mph /  5.6km/h 0.8mph /  1.3km/h 74% 0.00in /  0mm
04:49 72.3 °F /  22.4 °C 63.5 °F /  17.5 °C 29.85in /  1010.7hPa SE 2.3mph /  3.7km/h 1.1mph /  1.8km/h 74% 0.00in /  0mm
04:54 72.2 °F /  22.3 °C 63.8 °F /  17.7 °C 29.84in /  1010.4hPa SE 2.3mph /  3.7km/h 0.6mph /  1km/h 75% 0.00in /  0mm
04:59 72.2 °F /  22.3 °C 64.2 °F /  17.9 °C 29.84in /  1010.4hPa SE 3.5mph /  5.6km/h 1.7mph /  2.7km/h 76% 0.00in /  0mm
05:04 72.2 °F /  22.3 °C 64.6 °F /  18.1 °C 29.84in /  1010.4hPa SSE 6.0mph /  9.7km/h 2.3mph /  3.7km/h 77% 0.00in /  0mm
05:09 72.4 °F /  22.4 °C 65.2 °F /  18.4 °C 29.83in /  1010hPa East 4.6mph /  7.4km/h 1.9mph /  3.1km/h 78% 0.00in /  0mm
05:14 72.4 °F /  22.4 °C 65.2 °F /  18.4 °C 29.83in /  1010hPa SSE 3.5mph /  5.6km/h 3.1mph /  5km/h 78% 0.00in /  0mm
05:19 72.5 °F /  22.5 °C 65.6 °F /  18.7 °C 29.83in /  1010hPa SE 3.5mph /  5.6km/h 2.1mph /  3.4km/h 79% 0.00in /  0mm
05:24 72.6 °F /  22.6 °C 65.7 °F /  18.7 °C 29.83in /  1010hPa SSE 3.5mph /  5.6km/h 2.0mph /  3.2km/h 79% 0.00in /  0mm
05:29 72.6 °F /  22.6 °C 66.1 °F /  18.9 °C 29.83in /  1010hPa SSW 5.8mph /  9.3km/h 2.8mph /  4.5km/h 80% 0.00in /  0mm
05:34 72.7 °F /  22.6 °C 66.2 °F /  19 °C 29.84in /  1010.4hPa South 4.6mph /  7.4km/h 1.0mph /  1.6km/h 80% 0.00in /  0mm
05:39 72.7 °F /  22.6 °C 66.5 °F /  19.2 °C 29.84in /  1010.4hPa South 2.3mph /  3.7km/h 2.1mph /  3.4km/h 81% 0.00in /  0mm
05:44 72.7 °F /  22.6 °C 66.5 °F /  19.2 °C 29.83in /  1010hPa SE 2.3mph /  3.7km/h 1.1mph /  1.8km/h 81% 0.00in /  0mm
05:48 72.7 °F /  22.6 °C 66.9 °F /  19.4 °C 29.84in /  1010.4hPa SSE 2.3mph /  3.7km/h 2.6mph /  4.2km/h 82% 0.00in /  0mm
05:54 72.7 °F /  22.6 °C 66.9 °F /  19.4 °C 29.84in /  1010.4hPa SSE 2.3mph /  3.7km/h 2.1mph /  3.4km/h 82% 0.00in /  0mm
05:59 72.7 °F /  22.6 °C 66.9 °F /  19.4 °C 29.84in /  1010.4hPa SE 3.5mph /  5.6km/h 0.9mph /  1.4km/h 82% 0.00in /  0mm
06:04 72.7 °F /  22.6 °C 67.2 °F /  19.6 °C 29.84in /  1010.4hPa ESE 4.0mph /  6.4km/h 1.3mph /  2.1km/h 83% 0.00in /  0mm
06:09 72.7 °F /  22.6 °C 67.2 °F /  19.6 °C 29.84in /  1010.4hPa SE 3.5mph /  5.6km/h 1.1mph /  1.8km/h 83% 0.00in /  0mm
06:14 72.7 °F /  22.6 °C 67.6 °F /  19.8 °C 29.84in /  1010.4hPa SSE 3.5mph /  5.6km/h 0.9mph /  1.4km/h 84% 0.00in /  0mm
06:19 72.7 °F /  22.6 °C 67.6 °F /  19.8 °C 29.84in /  1010.4hPa South 3.5mph /  5.6km/h 1.9mph /  3.1km/h 84% 0.00in /  0mm
06:24 72.8 °F /  22.7 °C 67.7 °F /  19.8 °C 29.84in /  1010.4hPa South 2.3mph /  3.7km/h 0.4mph /  0.6km/h 84% 0.00in /  0mm
06:29 72.9 °F /  22.7 °C 67.8 °F /  19.9 °C 29.84in /  1010.4hPa ESE 3.5mph /  5.6km/h 1.7mph /  2.7km/h 84% 0.00in /  0mm
06:34 73.0 °F /  22.8 °C 68.2 °F /  20.1 °C 29.84in /  1010.4hPa SSE 8.1mph /  13km/h 2.8mph /  4.5km/h 85% 0.00in /  0mm
06:39 73.2 °F /  22.9 °C 68.4 °F /  20.2 °C 29.84in /  1010.4hPa SSE 3.5mph /  5.6km/h 1.4mph /  2.3km/h 85% 0.00in /  0mm
06:44 73.3 °F /  22.9 °C 68.5 °F /  20.3 °C 29.84in /  1010.4hPa ESE 4.0mph /  6.4km/h 1.5mph /  2.4km/h 85% 0.00in /  0mm
06:48 73.6 °F /  23.1 °C 68.8 °F /  20.4 °C 29.84in /  1010.4hPa South 4.6mph /  7.4km/h 2.0mph /  3.2km/h 85% 0.00in /  0mm
06:54 73.9 °F /  23.3 °C 69.1 °F /  20.6 °C 29.83in /  1010hPa SE 3.5mph /  5.6km/h 1.5mph /  2.4km/h 85% 0.00in /  0mm
06:59 74.2 °F /  23.4 °C 69.4 °F /  20.8 °C 29.84in /  1010.4hPa South 5.8mph /  9.3km/h 3.1mph /  5km/h 85% 0.00in /  0mm
07:04 74.5 °F /  23.6 °C 69.3 °F /  20.7 °C 29.83in /  1010hPa South 5.8mph /  9.3km/h 2.4mph /  3.9km/h 84% 0.00in /  0mm
07:09 74.6 °F /  23.7 °C 69.4 °F /  20.8 °C 29.84in /  1010.4hPa SSE 7.0mph /  11.3km/h 5.1mph /  8.2km/h 84% 0.00in /  0mm
07:14 74.8 °F /  23.8 °C 69.6 °F /  20.9 °C 29.84in /  1010.4hPa South 5.8mph /  9.3km/h 2.8mph /  4.5km/h 84% 0.00in /  0mm
07:19 75.0 °F /  23.9 °C 69.8 °F /  21 °C 29.83in /  1010hPa SSE 3.5mph /  5.6km/h 1.2mph /  1.9km/h 84% 0.00in /  0mm
07:24 75.1 °F /  23.9 °C 69.9 °F /  21.1 °C 29.83in /  1010hPa South 7.0mph /  11.3km/h 4.2mph /  6.8km/h 84% 0.00in /  0mm
07:29 75.1 °F /  23.9 °C 69.9 °F /  21.1 °C 29.83in /  1010hPa ESE 4.6mph /  7.4km/h 3.2mph /  5.1km/h 84% 0.00in /  0mm
07:34 75.2 °F /  24 °C 70.0 °F /  21.1 °C 29.83in /  1010hPa South 3.5mph /  5.6km/h 2.5mph /  4km/h 84% 0.00in /  0mm
07:39 75.3 °F /  24.1 °C 70.1 °F /  21.2 °C 29.84in /  1010.4hPa ESE 11.5mph /  18.5km/h 6.4mph /  10.3km/h 84% 0.00in /  0mm
07:44 75.6 °F /  24.2 °C 70.4 °F /  21.3 °C 29.83in /  1010hPa SSE 5.8mph /  9.3km/h 4.9mph /  7.9km/h 84% 0.00in /  0mm
07:49 76.0 °F /  24.4 °C 70.8 °F /  21.6 °C 29.83in /  1010hPa SSW 5.8mph /  9.3km/h 2.0mph /  3.2km/h 84% 0.00in /  0mm
07:54 76.4 °F /  24.7 °C 70.9 °F /  21.6 °C 29.83in /  1010hPa SSW 6.0mph /  9.7km/h 2.6mph /  4.2km/h 83% 0.00in /  0mm
07:59 76.7 °F /  24.8 °C 70.8 °F /  21.6 °C 29.84in /  1010.4hPa SSE 4.6mph /  7.4km/h 2.9mph /  4.7km/h 82% 0.00in /  0mm
08:04 77.1 °F /  25.1 °C 71.2 °F /  21.8 °C 29.84in /  1010.4hPa SE 9.2mph /  14.8km/h 3.0mph /  4.8km/h 82% 0.00in /  0mm
08:09 77.5 °F /  25.3 °C 71.2 °F /  21.8 °C 29.84in /  1010.4hPa SE 6.9mph /  11.1km/h 4.3mph /  6.9km/h 81% 0.00in /  0mm
08:14 77.8 °F /  25.4 °C 71.1 °F /  21.7 °C 29.84in /  1010.4hPa SE 4.6mph /  7.4km/h 3.0mph /  4.8km/h 80% 0.00in /  0mm
08:19 78.3 °F /  25.7 °C 71.6 °F /  22 °C 29.84in /  1010.4hPa SSW 9.2mph /  14.8km/h 2.9mph /  4.7km/h 80% 0.00in /  0mm
08:24 78.7 °F /  25.9 °C 71.6 °F /  22 °C 29.84in /  1010.4hPa SSE 9.2mph /  14.8km/h 6.8mph /  10.9km/h 79% 0.00in /  0mm
08:29 79.2 °F /  26.2 °C 71.4 °F /  21.9 °C 29.84in /  1010.4hPa SSE 9.0mph /  14.5km/h 6.3mph /  10.1km/h 77% 0.00in /  0mm
08:34 79.6 °F /  26.4 °C 71.4 °F /  21.9 °C 29.84in /  1010.4hPa South 12.7mph /  20.4km/h 4.0mph /  6.4km/h 76% 0.00in /  0mm
08:39 80.0 °F /  26.7 °C 71.4 °F /  21.9 °C 29.85in /  1010.7hPa South 9.2mph /  14.8km/h 6.3mph /  10.1km/h 75% 0.00in /  0mm
08:44 80.5 °F /  26.9 °C 71.4 °F /  21.9 °C 29.85in /  1010.7hPa East 6.0mph /  9.7km/h 3.9mph /  6.3km/h 74% 0.00in /  0mm
08:49 81.0 °F /  27.2 °C 71.5 °F /  21.9 °C 29.85in /  1010.7hPa SSE 5.8mph /  9.3km/h 4.1mph /  6.6km/h 73% 0.00in /  0mm
08:54 81.6 °F /  27.6 °C 71.3 °F /  21.8 °C 29.85in /  1010.7hPa South 10.4mph /  16.7km/h 6.3mph /  10.1km/h 71% 0.00in /  0mm
08:59 82.3 °F /  27.9 °C 71.1 °F /  21.7 °C 29.85in /  1010.7hPa South 10.4mph /  16.7km/h 4.4mph /  7.1km/h 69% 0.00in /  0mm
09:04 82.8 °F /  28.2 °C 71.2 °F /  21.8 °C 29.85in /  1010.7hPa South 8.1mph /  13km/h 1.4mph /  2.3km/h 68% 0.00in /  0mm
09:08 83.2 °F /  28.4 °C 71.1 °F /  21.7 °C 29.85in /  1010.7hPa East 10.4mph /  16.7km/h 3.8mph /  6.1km/h 67% 0.00in /  0mm
09:14 83.5 °F /  28.6 °C 70.9 °F /  21.6 °C 29.85in /  1010.7hPa SSE 9.2mph /  14.8km/h 3.3mph /  5.3km/h 66% 0.00in /  0mm
09:19 83.8 °F /  28.8 °C 70.8 °F /  21.6 °C 29.85in /  1010.7hPa SSW 9.2mph /  14.8km/h 6.4mph /  10.3km/h 65% 0.00in /  0mm
09:24 84.0 °F /  28.9 °C 71.0 °F /  21.7 °C 29.85in /  1010.7hPa SW 6.9mph /  11.1km/h 4.1mph /  6.6km/h 65% 0.00in /  0mm
09:29 84.2 °F /  29 °C 70.2 °F /  21.2 °C 29.86in /  1011.1hPa South 10.4mph /  16.7km/h 3.4mph /  5.5km/h 63% 0.00in /  0mm
09:34 84.7 °F /  29.3 °C 71.2 °F /  21.8 °C 29.85in /  1010.7hPa SSW 8.1mph /  13km/h 5.2mph /  8.4km/h 64% 0.00in /  0mm
09:39 85.1 °F /  29.5 °C 71.1 °F /  21.7 °C 29.85in /  1010.7hPa South 6.9mph /  11.1km/h 3.9mph /  6.3km/h 63% 0.00in /  0mm
09:44 85.2 °F /  29.6 °C 70.7 °F /  21.5 °C 29.85in /  1010.7hPa ESE 3.5mph /  5.6km/h 1.9mph /  3.1km/h 62% 0.00in /  0mm
09:49 85.4 °F /  29.7 °C 70.9 °F /  21.6 °C 29.85in /  1010.7hPa SSW 8.1mph /  13km/h 4.4mph /  7.1km/h 62% 0.00in /  0mm
09:54 85.5 °F /  29.7 °C 70.5 °F /  21.4 °C 29.84in /  1010.4hPa SSE 11.5mph /  18.5km/h 6.5mph /  10.5km/h 61% 0.00in /  0mm
09:59 85.3 °F /  29.6 °C 70.8 °F /  21.6 °C 29.84in /  1010.4hPa SSE 6.9mph /  11.1km/h 2.8mph /  4.5km/h 62% 0.00in /  0mm
10:04 85.7 °F /  29.8 °C 71.2 °F /  21.8 °C 29.84in /  1010.4hPa South 8.1mph /  13km/h 3.7mph /  6km/h 62% 0.00in /  0mm
10:09 85.7 °F /  29.8 °C 70.7 °F /  21.5 °C 29.84in /  1010.4hPa South 4.6mph /  7.4km/h 2.3mph /  3.7km/h 61% 0.00in /  0mm
10:14 86.0 °F /  30 °C 71.5 °F /  21.9 °C 29.84in /  1010.4hPa ESE 6.9mph /  11.1km/h 3.4mph /  5.5km/h 62% 0.00in /  0mm
10:19 86.3 °F /  30.2 °C 71.3 °F /  21.8 °C 29.84in /  1010.4hPa SSE 6.9mph /  11.1km/h 7.0mph /  11.3km/h 61% 0.00in /  0mm
10:24 86.3 °F /  30.2 °C 70.8 °F /  21.6 °C 29.84in /  1010.4hPa East 8.1mph /  13km/h 4.6mph /  7.4km/h 60% 0.00in /  0mm
10:29 86.5 °F /  30.3 °C 71.5 °F /  21.9 °C 29.84in /  1010.4hPa South 5.8mph /  9.3km/h 2.5mph /  4km/h 61% 0.00in /  0mm
10:34 86.6 °F /  30.3 °C 71.1 °F /  21.7 °C 29.84in /  1010.4hPa SW 10.4mph /  16.7km/h 6.7mph /  10.8km/h 60% 0.00in /  0mm
10:39 86.8 °F /  30.4 °C 70.8 °F /  21.6 °C 29.84in /  1010.4hPa SSW 5.8mph /  9.3km/h 4.8mph /  7.7km/h 59% 0.00in /  0mm
10:44 87.3 °F /  30.7 °C 71.2 °F /  21.8 °C 29.84in /  1010.4hPa South 4.6mph /  7.4km/h 4.7mph /  7.6km/h 59% 0.00in /  0mm
10:49 87.6 °F /  30.9 °C 72.0 °F /  22.2 °C 29.84in /  1010.4hPa South 1.2mph /  1.9km/h 1.9mph /  3.1km/h 60% 0.00in /  0mm
10:54 88.1 °F /  31.2 °C 70.9 °F /  21.6 °C 29.84in /  1010.4hPa SW 8.1mph /  13km/h 6.0mph /  9.7km/h 57% 0.00in /  0mm
10:59 88.3 °F /  31.3 °C 70.6 °F /  21.4 °C 29.84in /  1010.4hPa SSE 10.4mph /  16.7km/h 7.0mph /  11.3km/h 56% 0.00in /  0mm
11:04 88.0 °F /  31.1 °C 69.8 °F /  21 °C 29.84in /  1010.4hPa WNW 6.9mph /  11.1km/h 5.9mph /  9.5km/h 55% 0.00in /  0mm
11:09 88.3 °F /  31.3 °C 71.1 °F /  21.7 °C 29.84in /  1010.4hPa SSE 9.2mph /  14.8km/h 6.0mph /  9.7km/h 57% 0.00in /  0mm
11:13 88.5 °F /  31.4 °C 70.8 °F /  21.6 °C 29.84in /  1010.4hPa SSW 8.1mph /  13km/h 4.7mph /  7.6km/h 56% 0.00in /  0mm
11:19 88.9 °F /  31.6 °C 71.7 °F /  22.1 °C 29.84in /  1010.4hPa NNW 3.0mph /  4.8km/h 1.3mph /  2.1km/h 57% 0.00in /  0mm
11:24 89.6 °F /  32 °C 70.8 °F /  21.6 °C 29.84in /  1010.4hPa SSE 6.9mph /  11.1km/h 3.6mph /  5.8km/h 54% 0.00in /  0mm
11:29 89.7 °F /  32.1 °C 70.3 °F /  21.3 °C 29.84in /  1010.4hPa SSW 4.6mph /  7.4km/h 2.6mph /  4.2km/h 53% 0.00in /  0mm
11:34 90.2 °F /  32.3 °C 71.8 °F /  22.1 °C 29.84in /  1010.4hPa SW 2.3mph /  3.7km/h 0.9mph /  1.4km/h 55% 0.00in /  0mm
11:39 90.5 °F /  32.5 °C 71.0 °F /  21.7 °C 29.84in /  1010.4hPa SE 8.1mph /  13km/h 2.3mph /  3.7km/h 53% 0.00in /  0mm
11:44 91.2 °F /  32.9 °C 71.7 °F /  22.1 °C 29.84in /  1010.4hPa South 3.5mph /  5.6km/h 1.9mph /  3.1km/h 53% 0.00in /  0mm
11:49 91.7 °F /  33.2 °C 70.4 °F /  21.3 °C 29.84in /  1010.4hPa South 5.8mph /  9.3km/h 2.7mph /  4.3km/h 50% 0.00in /  0mm
11:54 91.7 °F /  33.2 °C 69.8 °F /  21 °C 29.84in /  1010.4hPa SSE 11.5mph /  18.5km/h 5.5mph /  8.9km/h 49% 0.00in /  0mm
11:59 91.3 °F /  32.9 °C 69.5 °F /  20.8 °C 29.84in /  1010.4hPa South 6.9mph /  11.1km/h 3.5mph /  5.6km/h 49% 0.00in /  0mm
12:04 91.4 °F /  33 °C 69.6 °F /  20.9 °C 29.84in /  1010.4hPa SSE 5.8mph /  9.3km/h 3.7mph /  6km/h 49% 0.00in /  0mm
12:09 91.7 °F /  33.2 °C 69.8 °F /  21 °C 29.84in /  1010.4hPa SSW 8.1mph /  13km/h 4.5mph /  7.2km/h 49% 0.00in /  0mm
12:14 92.2 °F /  33.4 °C 70.9 °F /  21.6 °C 29.83in /  1010hPa SSW 5.8mph /  9.3km/h 3.5mph /  5.6km/h 50% 0.00in /  0mm
12:19 92.6 °F /  33.7 °C 70.0 °F /  21.1 °C 29.83in /  1010hPa SW 5.8mph /  9.3km/h 4.3mph /  6.9km/h 48% 0.00in /  0mm
12:24 92.6 °F /  33.7 °C 70.0 °F /  21.1 °C 29.83in /  1010hPa SSW 5.8mph /  9.3km/h 1.3mph /  2.1km/h 48% 0.00in /  0mm
12:29 92.7 °F /  33.7 °C 69.5 °F /  20.8 °C 29.83in /  1010hPa SE 5.8mph /  9.3km/h 2.5mph /  4km/h 47% 0.00in /  0mm
12:34 93.0 °F /  33.9 °C 69.8 °F /  21 °C 29.83in /  1010hPa South 11.5mph /  18.5km/h 5.5mph /  8.9km/h 47% 0.00in /  0mm
12:39 93.2 °F /  34 °C 69.3 °F /  20.7 °C 29.82in /  1009.7hPa SSE 8.1mph /  13km/h 4.6mph /  7.4km/h 46% 0.00in /  0mm
12:44 93.5 °F /  34.2 °C 69.6 °F /  20.9 °C 29.82in /  1009.7hPa SSW 8.1mph /  13km/h 3.4mph /  5.5km/h 46% 0.00in /  0mm
12:49 93.8 °F /  34.3 °C 69.2 °F /  20.7 °C 29.82in /  1009.7hPa SSW 8.1mph /  13km/h 4.3mph /  6.9km/h 45% 0.00in /  0mm
12:54 93.5 °F /  34.2 °C 69.6 °F /  20.9 °C 29.82in /  1009.7hPa SE 4.6mph /  7.4km/h 1.4mph /  2.3km/h 46% 0.00in /  0mm
12:59 93.9 °F /  34.4 °C 69.3 °F /  20.7 °C 29.82in /  1009.7hPa South 3.5mph /  5.6km/h 2.4mph /  3.9km/h 45% 0.00in /  0mm
13:04 93.8 °F /  34.3 °C 69.2 °F /  20.7 °C 29.82in /  1009.7hPa SE 5.8mph /  9.3km/h 2.6mph /  4.2km/h 45% 0.00in /  0mm
13:09 94.3 °F /  34.6 °C 69.7 °F /  20.9 °C 29.82in /  1009.7hPa SSE 6.9mph /  11.1km/h 4.3mph /  6.9km/h 45% 0.00in /  0mm
13:14 94.5 °F /  34.7 °C 70.5 °F /  21.4 °C 29.82in /  1009.7hPa South 7.0mph /  11.3km/h 3.3mph /  5.3km/h 46% 0.00in /  0mm
13:19 94.3 °F /  34.6 °C 69.7 °F /  20.9 °C 29.82in /  1009.7hPa SSE 2.3mph /  3.7km/h 1.5mph /  2.4km/h 45% 0.00in /  0mm
13:24 94.7 °F /  34.8 °C 70.7 °F /  21.5 °C 29.81in /  1009.4hPa ESE 3.5mph /  5.6km/h 2.7mph /  4.3km/h 46% 0.00in /  0mm
13:29 94.8 °F /  34.9 °C 68.8 °F /  20.4 °C 29.82in /  1009.7hPa SSE 6.9mph /  11.1km/h 5.0mph /  8km/h 43% 0.00in /  0mm
13:34 94.5 °F /  34.7 °C 69.9 °F /  21.1 °C 29.81in /  1009.4hPa NW 11.5mph /  18.5km/h 2.5mph /  4km/h 45% 0.00in /  0mm
13:39 94.2 °F /  34.6 °C 69.6 °F /  20.9 °C 29.81in /  1009.4hPa South 4.6mph /  7.4km/h 1.7mph /  2.7km/h 45% 0.00in /  0mm
13:44 94.6 °F /  34.8 °C 70.0 °F /  21.1 °C 29.81in /  1009.4hPa ESE 8.1mph /  13km/h 2.0mph /  3.2km/h 45% 0.00in /  0mm
13:49 94.8 °F /  34.9 °C 68.8 °F /  20.4 °C 29.81in /  1009.4hPa East 11.5mph /  18.5km/h 4.2mph /  6.8km/h 43% 0.00in /  0mm
13:54 94.6 °F /  34.8 °C 68.0 °F /  20 °C 29.81in /  1009.4hPa SSW 6.9mph /  11.1km/h 4.4mph /  7.1km/h 42% 0.00in /  0mm
13:59 94.9 °F /  34.9 °C 68.2 °F /  20.1 °C 29.81in /  1009.4hPa South 7.0mph /  11.3km/h 2.8mph /  4.5km/h 42% 0.00in /  0mm
14:04 95.2 °F /  35.1 °C 69.2 °F /  20.7 °C 29.81in /  1009.4hPa SSW 3.5mph /  5.6km/h 1.2mph /  1.9km/h 43% 0.00in /  0mm
14:09 95.7 °F /  35.4 °C 68.9 °F /  20.5 °C 29.81in /  1009.4hPa SSE 8.1mph /  13km/h 6.0mph /  9.7km/h 42% 0.00in /  0mm
14:14 96.0 °F /  35.6 °C 69.2 °F /  20.7 °C 29.81in /  1009.4hPa SSW 3.5mph /  5.6km/h 1.2mph /  1.9km/h 42% 0.00in /  0mm
14:19 96.0 °F /  35.6 °C 69.2 °F /  20.7 °C 29.81in /  1009.4hPa SSW 3.5mph /  5.6km/h 1.2mph /  1.9km/h 42% 0.00in /  0mm
14:24 95.4 °F /  35.2 °C 70.0 °F /  21.1 °C 29.81in /  1009.4hPa South 10.4mph /  16.7km/h 6.7mph /  10.8km/h 44% 0.00in /  0mm
14:29 94.9 °F /  34.9 °C 68.9 °F /  20.5 °C 29.81in /  1009.4hPa South 10.4mph /  16.7km/h 6.4mph /  10.3km/h 43% 0.00in /  0mm
14:34 94.6 °F /  34.8 °C 69.3 °F /  20.7 °C 29.81in /  1009.4hPa SE 8.1mph /  13km/h 4.8mph /  7.7km/h 44% 0.00in /  0mm
14:39 94.2 °F /  34.6 °C 70.2 °F /  21.2 °C 29.81in /  1009.4hPa South 7.0mph /  11.3km/h 5.1mph /  8.2km/h 46% 0.00in /  0mm
14:44 94.4 °F /  34.7 °C 69.1 °F /  20.6 °C 29.81in /  1009.4hPa SE 9.2mph /  14.8km/h 3.9mph /  6.3km/h 44% 0.00in /  0mm
14:49 94.5 °F /  34.7 °C 69.2 °F /  20.7 °C 29.81in /  1009.4hPa SSE 5.8mph /  9.3km/h 5.3mph /  8.5km/h 44% 0.00in /  0mm
14:54 94.3 °F /  34.6 °C 69.7 °F /  20.9 °C 29.81in /  1009.4hPa SSW 10.0mph /  16.1km/h 2.5mph /  4km/h 45% 0.00in /  0mm
14:59 94.4 °F /  34.7 °C 70.4 °F /  21.3 °C 29.81in /  1009.4hPa SSE 3.5mph /  5.6km/h 1.3mph /  2.1km/h 46% 0.00in /  0mm
15:04 95.0 °F /  35 °C 69.7 °F /  20.9 °C 29.81in /  1009.4hPa SSW 5.8mph /  9.3km/h 1.4mph /  2.3km/h 44% 0.00in /  0mm
15:09 95.3 °F /  35.2 °C 69.9 °F /  21.1 °C 29.81in /  1009.4hPa SW 10.4mph /  16.7km/h 5.7mph /  9.2km/h 44% 0.00in /  0mm
15:14 94.9 °F /  34.9 °C 68.9 °F /  20.5 °C 29.81in /  1009.4hPa South 11.0mph /  17.7km/h 6.5mph /  10.5km/h 43% 0.00in /  0mm
15:19 94.6 °F /  34.8 °C 68.6 °F /  20.3 °C 29.80in /  1009hPa SE 10.4mph /  16.7km/h 6.1mph /  9.8km/h 43% 0.00in /  0mm
15:24 94.8 °F /  34.9 °C 69.5 °F /  20.8 °C 29.80in /  1009hPa SSE 6.9mph /  11.1km/h 3.5mph /  5.6km/h 44% 0.00in /  0mm
15:29 95.1 °F /  35.1 °C 69.1 °F /  20.6 °C 29.80in /  1009hPa South 2.3mph /  3.7km/h 3.9mph /  6.3km/h 43% 0.00in /  0mm
15:34 95.5 °F /  35.3 °C 68.8 °F /  20.4 °C 29.80in /  1009hPa SSE 11.5mph /  18.5km/h 3.9mph /  6.3km/h 42% 0.00in /  0mm
15:39 95.0 °F /  35 °C 68.3 °F /  20.2 °C 29.80in /  1009hPa South 6.9mph /  11.1km/h 6.5mph /  10.5km/h 42% 0.00in /  0mm
15:44 95.2 °F /  35.1 °C 67.8 °F /  19.9 °C 29.80in /  1009hPa South 9.2mph /  14.8km/h 3.9mph /  6.3km/h 41% 0.00in /  0mm
15:49 95.6 °F /  35.3 °C 68.8 °F /  20.4 °C 29.79in /  1008.7hPa SSE 3.5mph /  5.6km/h 1.5mph /  2.4km/h 42% 0.00in /  0mm
15:54 96.1 °F /  35.6 °C 69.3 °F /  20.7 °C 29.79in /  1008.7hPa South 4.6mph /  7.4km/h 1.4mph /  2.3km/h 42% 0.00in /  0mm
15:59 95.6 °F /  35.3 °C 68.1 °F /  20.1 °C 29.79in /  1008.7hPa South 11.5mph /  18.5km/h 6.3mph /  10.1km/h 41% 0.00in /  0mm
16:04 95.1 °F /  35.1 °C 68.4 °F /  20.2 °C 29.78in /  1008.4hPa South 8.1mph /  13km/h 3.3mph /  5.3km/h 42% 0.00in /  0mm
16:09 95.1 °F /  35.1 °C 68.4 °F /  20.2 °C 29.78in /  1008.4hPa South 9.2mph /  14.8km/h 2.1mph /  3.4km/h 42% 0.00in /  0mm
16:14 95.5 °F /  35.3 °C 67.3 °F /  19.6 °C 29.78in /  1008.4hPa SE 8.1mph /  13km/h 6.1mph /  9.8km/h 40% 0.00in /  0mm
16:19 95.2 °F /  35.1 °C 67.8 °F /  19.9 °C 29.77in /  1008hPa SSE 9.0mph /  14.5km/h 4.1mph /  6.6km/h 41% 0.00in /  0mm
16:24 95.2 °F /  35.1 °C 67.8 °F /  19.9 °C 29.77in /  1008hPa SSE 6.9mph /  11.1km/h 3.4mph /  5.5km/h 41% 0.00in /  0mm
16:29 95.4 °F /  35.2 °C 67.2 °F /  19.6 °C 29.77in /  1008hPa South 2.3mph /  3.7km/h 2.3mph /  3.7km/h 40% 0.00in /  0mm
16:34 95.4 °F /  35.2 °C 67.2 °F /  19.6 °C 29.77in /  1008hPa SE 11.5mph /  18.5km/h 5.8mph /  9.3km/h 40% 0.00in /  0mm
16:39 95.1 °F /  35.1 °C 67.7 °F /  19.8 °C 29.77in /  1008hPa SE 8.1mph /  13km/h 7.0mph /  11.3km/h 41% 0.00in /  0mm
16:44 94.9 °F /  34.9 °C 68.2 °F /  20.1 °C 29.76in /  1007.7hPa South 8.1mph /  13km/h 4.3mph /  6.9km/h 42% 0.00in /  0mm
16:49 94.7 °F /  34.8 °C 67.3 °F /  19.6 °C 29.76in /  1007.7hPa SSW 10.4mph /  16.7km/h 3.0mph /  4.8km/h 41% 0.00in /  0mm
16:54 94.6 °F /  34.8 °C 68.0 °F /  20 °C 29.76in /  1007.7hPa SSE 11.5mph /  18.5km/h 4.1mph /  6.6km/h 42% 0.00in /  0mm
16:59 94.4 °F /  34.7 °C 68.5 °F /  20.3 °C 29.75in /  1007.3hPa South 8.1mph /  13km/h 5.0mph /  8km/h 43% 0.00in /  0mm
17:04 94.6 °F /  34.8 °C 70.0 °F /  21.1 °C 29.75in /  1007.3hPa SSW 8.1mph /  13km/h 2.4mph /  3.9km/h 45% 0.00in /  0mm
17:09 94.6 °F /  34.8 °C 68.6 °F /  20.3 °C 29.75in /  1007.3hPa SSW 8.1mph /  13km/h 3.2mph /  5.1km/h 43% 0.00in /  0mm
17:14 94.5 °F /  34.7 °C 68.5 °F /  20.3 °C 29.75in /  1007.3hPa SW 10.4mph /  16.7km/h 3.2mph /  5.1km/h 43% 0.00in /  0mm
17:19 94.3 °F /  34.6 °C 69.0 °F /  20.6 °C 29.74in /  1007hPa South 9.2mph /  14.8km/h 3.0mph /  4.8km/h 44% 0.00in /  0mm
17:24 94.3 °F /  34.6 °C 69.0 °F /  20.6 °C 29.74in /  1007hPa SSE 26.5mph /  42.6km/h 10.1mph /  16.3km/h 44% 0.00in /  0mm
17:29 93.7 °F /  34.3 °C 68.5 °F /  20.3 °C 29.74in /  1007hPa SE 8.1mph /  13km/h 4.8mph /  7.7km/h 44% 0.00in /  0mm
17:34 93.6 °F /  34.2 °C 68.4 °F /  20.2 °C 29.74in /  1007hPa SSW 8.1mph /  13km/h 4.2mph /  6.8km/h 44% 0.00in /  0mm
17:39 93.8 °F /  34.3 °C 68.6 °F /  20.3 °C 29.74in /  1007hPa SSW 6.9mph /  11.1km/h 2.4mph /  3.9km/h 44% 0.00in /  0mm
17:44 94.0 °F /  34.4 °C 68.8 °F /  20.4 °C 29.74in /  1007hPa SSE 10.4mph /  16.7km/h 4.4mph /  7.1km/h 44% 0.00in /  0mm
17:49 94.0 °F /  34.4 °C 68.8 °F /  20.4 °C 29.73in /  1006.7hPa ESE 9.2mph /  14.8km/h 4.7mph /  7.6km/h 44% 0.00in /  0mm
17:54 94.0 °F /  34.4 °C 68.8 °F /  20.4 °C 29.74in /  1007hPa West 3.5mph /  5.6km/h 4.2mph /  6.8km/h 44% 0.00in /  0mm
17:59 93.7 °F /  34.3 °C 68.5 °F /  20.3 °C 29.74in /  1007hPa South 9.2mph /  14.8km/h 6.0mph /  9.7km/h 44% 0.00in /  0mm
18:04 93.4 °F /  34.1 °C 68.2 °F /  20.1 °C 29.73in /  1006.7hPa SSE 9.2mph /  14.8km/h 7.1mph /  11.4km/h 44% 0.00in /  0mm
18:09 93.1 °F /  33.9 °C 67.3 °F /  19.6 °C 29.74in /  1007hPa SSW 11.5mph /  18.5km/h 8.9mph /  14.3km/h 43% 0.00in /  0mm
18:14 92.9 °F /  33.8 °C 67.1 °F /  19.5 °C 29.74in /  1007hPa SSE 9.2mph /  14.8km/h 7.6mph /  12.2km/h 43% 0.00in /  0mm
18:19 92.8 °F /  33.8 °C 67.0 °F /  19.4 °C 29.73in /  1006.7hPa SSE 9.2mph /  14.8km/h 6.2mph /  10km/h 43% 0.00in /  0mm
18:24 92.8 °F /  33.8 °C 67.0 °F /  19.4 °C 29.73in /  1006.7hPa SSE 9.0mph /  14.5km/h 4.6mph /  7.4km/h 43% 0.00in /  0mm
18:29 92.8 °F /  33.8 °C 67.0 °F /  19.4 °C 29.73in /  1006.7hPa SE 8.1mph /  13km/h 4.2mph /  6.8km/h 43% 0.00in /  0mm
18:34 92.8 °F /  33.8 °C 66.3 °F /  19.1 °C 29.73in /  1006.7hPa SSW 8.1mph /  13km/h 5.7mph /  9.2km/h 42% 0.00in /  0mm
18:39 92.6 °F /  33.7 °C 66.8 °F /  19.3 °C 29.73in /  1006.7hPa South 12.7mph /  20.4km/h 5.4mph /  8.7km/h 43% 0.00in /  0mm
18:44 92.5 °F /  33.6 °C 66.7 °F /  19.3 °C 29.73in /  1006.7hPa SW 8.0mph /  12.9km/h 3.9mph /  6.3km/h 43% 0.00in /  0mm
18:49 92.4 °F /  33.6 °C 66.7 °F /  19.3 °C 29.73in /  1006.7hPa WSW 14.0mph /  22.5km/h 5.5mph /  8.9km/h 43% 0.00in /  0mm
18:54 92.1 °F /  33.4 °C 66.4 °F /  19.1 °C 29.73in /  1006.7hPa SSE 13.8mph /  22.2km/h 3.7mph /  6km/h 43% 0.00in /  0mm
18:59 91.9 °F /  33.3 °C 66.2 °F /  19 °C 29.73in /  1006.7hPa SW 10.4mph /  16.7km/h 6.0mph /  9.7km/h 43% 0.00in /  0mm
19:04 91.8 °F /  33.2 °C 66.8 °F /  19.3 °C 29.73in /  1006.7hPa South 6.9mph /  11.1km/h 5.6mph /  9km/h 44% 0.00in /  0mm
19:09 91.6 °F /  33.1 °C 65.9 °F /  18.8 °C 29.73in /  1006.7hPa South 19.6mph /  31.5km/h 9.8mph /  15.8km/h 43% 0.00in /  0mm
19:14 91.4 °F /  33 °C 66.4 °F /  19.1 °C 29.73in /  1006.7hPa SSE 11.5mph /  18.5km/h 4.9mph /  7.9km/h 44% 0.00in /  0mm
19:19 91.3 °F /  32.9 °C 66.3 °F /  19.1 °C 29.73in /  1006.7hPa SW 8.1mph /  13km/h 6.0mph /  9.7km/h 44% 0.00in /  0mm
19:24 91.2 °F /  32.9 °C 66.9 °F /  19.4 °C 29.73in /  1006.7hPa SSW 8.0mph /  12.9km/h 2.6mph /  4.2km/h 45% 0.00in /  0mm
19:29 91.0 °F /  32.8 °C 66.7 °F /  19.3 °C 29.73in /  1006.7hPa SW 6.9mph /  11.1km/h 4.6mph /  7.4km/h 45% 0.00in /  0mm
19:34 90.9 °F /  32.7 °C 66.6 °F /  19.2 °C 29.74in /  1007hPa SSE 11.5mph /  18.5km/h 7.3mph /  11.7km/h 45% 0.00in /  0mm
19:39 90.9 °F /  32.7 °C 67.3 °F /  19.6 °C 29.74in /  1007hPa SSE 6.0mph /  9.7km/h 4.4mph /  7.1km/h 46% 0.00in /  0mm
19:44 90.7 °F /  32.6 °C 67.1 °F /  19.5 °C 29.75in /  1007.3hPa SE 9.0mph /  14.5km/h 4.8mph /  7.7km/h 46% 0.00in /  0mm
19:49 90.6 °F /  32.6 °C 67.6 °F /  19.8 °C 29.74in /  1007hPa SW 4.6mph /  7.4km/h 3.7mph /  6km/h 47% 0.00in /  0mm
19:54 90.4 °F /  32.4 °C 67.4 °F /  19.7 °C 29.75in /  1007.3hPa SE 8.1mph /  13km/h 4.6mph /  7.4km/h 47% 0.00in /  0mm
19:59 90.2 °F /  32.3 °C 68.5 °F /  20.3 °C 29.75in /  1007.3hPa East 9.2mph /  14.8km/h 3.4mph /  5.5km/h 49% 0.00in /  0mm
20:04 89.9 °F /  32.2 °C 68.8 °F /  20.4 °C 29.75in /  1007.3hPa ESE 4.6mph /  7.4km/h 0.9mph /  1.4km/h 50% 0.00in /  0mm
20:09 89.7 °F /  32.1 °C 68.6 °F /  20.3 °C 29.74in /  1007hPa SE 7.0mph /  11.3km/h 4.6mph /  7.4km/h 50% 0.00in /  0mm
20:14 89.5 °F /  31.9 °C 69.0 °F /  20.6 °C 29.75in /  1007.3hPa East 4.0mph /  6.4km/h 2.4mph /  3.9km/h 51% 0.00in /  0mm
20:19 89.3 °F /  31.8 °C 69.4 °F /  20.8 °C 29.75in /  1007.3hPa SSW 9.2mph /  14.8km/h 4.9mph /  7.9km/h 52% 0.00in /  0mm
20:24 89.0 °F /  31.7 °C 69.6 °F /  20.9 °C 29.75in /  1007.3hPa SW 9.2mph /  14.8km/h 3.6mph /  5.8km/h 53% 0.00in /  0mm
20:29 88.7 °F /  31.5 °C 69.9 °F /  21.1 °C 29.75in /  1007.3hPa South 4.6mph /  7.4km/h 3.3mph /  5.3km/h 54% 0.00in /  0mm
20:34 88.4 °F /  31.3 °C 70.2 °F /  21.2 °C 29.75in /  1007.3hPa SSE 6.0mph /  9.7km/h 3.0mph /  4.8km/h 55% 0.00in /  0mm
20:39 88.1 °F /  31.2 °C 70.4 °F /  21.3 °C 29.75in /  1007.3hPa SSE 3.5mph /  5.6km/h 1.6mph /  2.6km/h 56% 0.00in /  0mm
20:44 87.9 °F /  31.1 °C 70.8 °F /  21.6 °C 29.75in /  1007.3hPa SE 4.6mph /  7.4km/h 2.3mph /  3.7km/h 57% 0.00in /  0mm
20:49 87.6 °F /  30.9 °C 70.5 °F /  21.4 °C 29.75in /  1007.3hPa South 8.1mph /  13km/h 6.1mph /  9.8km/h 57% 0.00in /  0mm
20:54 87.5 °F /  30.8 °C 70.4 °F /  21.3 °C 29.75in /  1007.3hPa South 5.8mph /  9.3km/h 3.2mph /  5.1km/h 57% 0.00in /  0mm
20:59 87.3 °F /  30.7 °C 70.2 °F /  21.2 °C 29.75in /  1007.3hPa South 5.8mph /  9.3km/h 2.7mph /  4.3km/h 57% 0.00in /  0mm
21:04 87.2 °F /  30.7 °C 70.6 °F /  21.4 °C 29.75in /  1007.3hPa SSE 5.8mph /  9.3km/h 2.2mph /  3.5km/h 58% 0.00in /  0mm
21:09 87.0 °F /  30.6 °C 70.4 °F /  21.3 °C 29.75in /  1007.3hPa East 5.8mph /  9.3km/h 4.9mph /  7.9km/h 58% 0.00in /  0mm
21:14 86.8 °F /  30.4 °C 70.2 °F /  21.2 °C 29.76in /  1007.7hPa SSE 6.9mph /  11.1km/h 3.2mph /  5.1km/h 58% 0.00in /  0mm
21:19 86.6 °F /  30.3 °C 70.1 °F /  21.2 °C 29.75in /  1007.3hPa South 6.9mph /  11.1km/h 4.3mph /  6.9km/h 58% 0.00in /  0mm
21:24 86.5 °F /  30.3 °C 70.0 °F /  21.1 °C 29.75in /  1007.3hPa SSE 8.1mph /  13km/h 3.7mph /  6km/h 58% 0.00in /  0mm
21:29 86.3 °F /  30.2 °C 69.8 °F /  21 °C 29.76in /  1007.7hPa SSE 11.5mph /  18.5km/h 3.6mph /  5.8km/h 58% 0.00in /  0mm
21:33 86.3 °F /  30.2 °C 69.8 °F /  21 °C 29.76in /  1007.7hPa South 4.6mph /  7.4km/h 1.7mph /  2.7km/h 58% 0.00in /  0mm
21:39 86.2 °F /  30.1 °C 69.7 °F /  20.9 °C 29.76in /  1007.7hPa South 11.5mph /  18.5km/h 3.1mph /  5km/h 58% 0.00in /  0mm
21:44 86.1 °F /  30.1 °C 69.6 °F /  20.9 °C 29.76in /  1007.7hPa SSE 11.5mph /  18.5km/h 7.0mph /  11.3km/h 58% 0.00in /  0mm
21:49 86.0 °F /  30 °C 69.0 °F /  20.6 °C 29.76in /  1007.7hPa SSE 11.0mph /  17.7km/h 5.4mph /  8.7km/h 57% 0.00in /  0mm
21:54 85.9 °F /  29.9 °C 68.9 °F /  20.5 °C 29.77in /  1008hPa SE 11.5mph /  18.5km/h 1.9mph /  3.1km/h 57% 0.00in /  0mm
21:59 85.8 °F /  29.9 °C 69.3 °F /  20.7 °C 29.77in /  1008hPa ESE 6.9mph /  11.1km/h 2.6mph /  4.2km/h 58% 0.00in /  0mm
22:03 85.6 °F /  29.8 °C 69.1 °F /  20.6 °C 29.77in /  1008hPa South 12.7mph /  20.4km/h 3.4mph /  5.5km/h 58% 0.00in /  0mm
22:09 85.5 °F /  29.7 °C 69.0 °F /  20.6 °C 29.77in /  1008hPa South 11.5mph /  18.5km/h 2.3mph /  3.7km/h 58% 0.00in /  0mm
22:14 85.4 °F /  29.7 °C 68.9 °F /  20.5 °C 29.78in /  1008.4hPa SE 5.8mph /  9.3km/h 3.0mph /  4.8km/h 58% 0.00in /  0mm
22:19 85.1 °F /  29.5 °C 69.2 °F /  20.7 °C 29.78in /  1008.4hPa ESE 8.1mph /  13km/h 3.5mph /  5.6km/h 59% 0.00in /  0mm
22:24 85.0 °F /  29.4 °C 69.6 °F /  20.9 °C 29.78in /  1008.4hPa South 8.0mph /  12.9km/h 2.9mph /  4.7km/h 60% 0.00in /  0mm
22:29 84.8 °F /  29.3 °C 69.4 °F /  20.8 °C 29.78in /  1008.4hPa South 8.0mph /  12.9km/h 3.1mph /  5km/h 60% 0.00in /  0mm
22:34 84.7 °F /  29.3 °C 69.8 °F /  21 °C 29.78in /  1008.4hPa ESE 8.1mph /  13km/h 2.9mph /  4.7km/h 61% 0.00in /  0mm
22:39 84.6 °F /  29.2 °C 69.7 °F /  20.9 °C 29.78in /  1008.4hPa SSE 5.8mph /  9.3km/h 5.4mph /  8.7km/h 61% 0.00in /  0mm
22:44 84.5 °F /  29.2 °C 69.6 °F /  20.9 °C 29.78in /  1008.4hPa ESE 8.1mph /  13km/h 4.1mph /  6.6km/h 61% 0.00in /  0mm
22:49 84.4 °F /  29.1 °C 70.0 °F /  21.1 °C 29.78in /  1008.4hPa South 11.5mph /  18.5km/h 2.6mph /  4.2km/h 62% 0.00in /  0mm
22:54 84.2 °F /  29 °C 69.8 °F /  21 °C 29.78in /  1008.4hPa South 4.0mph /  6.4km/h 1.8mph /  2.9km/h 62% 0.00in /  0mm
22:59 84.1 °F /  28.9 °C 69.7 °F /  20.9 °C 29.78in /  1008.4hPa South 6.9mph /  11.1km/h 5.1mph /  8.2km/h 62% 0.00in /  0mm
23:04 84.0 °F /  28.9 °C 70.0 °F /  21.1 °C 29.78in /  1008.4hPa SSE 8.1mph /  13km/h 6.2mph /  10km/h 63% 0.00in /  0mm
23:09 83.8 °F /  28.8 °C 69.9 °F /  21.1 °C 29.78in /  1008.4hPa South 8.0mph /  12.9km/h 4.0mph /  6.4km/h 63% 0.00in /  0mm
23:14 83.8 °F /  28.8 °C 69.9 °F /  21.1 °C 29.78in /  1008.4hPa SSW 8.1mph /  13km/h 4.0mph /  6.4km/h 63% 0.00in /  0mm
23:19 83.7 °F /  28.7 °C 69.8 °F /  21 °C 29.78in /  1008.4hPa SSE 4.6mph /  7.4km/h 3.2mph /  5.1km/h 63% 0.00in /  0mm
23:24 83.6 °F /  28.7 °C 70.1 °F /  21.2 °C 29.79in /  1008.7hPa South 3.5mph /  5.6km/h 4.4mph /  7.1km/h 64% 0.00in /  0mm
23:29 83.6 °F /  28.7 °C 69.7 °F /  20.9 °C 29.79in /  1008.7hPa SSW 5.8mph /  9.3km/h 2.5mph /  4km/h 63% 0.00in /  0mm
23:34 83.6 °F /  28.7 °C 69.7 °F /  20.9 °C 29.79in /  1008.7hPa SW 9.2mph /  14.8km/h 3.2mph /  5.1km/h 63% 0.00in /  0mm
23:39 83.5 °F /  28.6 °C 70.0 °F /  21.1 °C 29.79in /  1008.7hPa SW 8.1mph /  13km/h 3.6mph /  5.8km/h 64% 0.00in /  0mm
23:44 83.5 °F /  28.6 °C 70.0 °F /  21.1 °C 29.79in /  1008.7hPa SE 3.5mph /  5.6km/h 1.0mph /  1.6km/h 64% 0.00in /  0mm
23:49 83.4 °F /  28.6 °C 69.9 °F /  21.1 °C 29.79in /  1008.7hPa SE 7.0mph /  11.3km/h 4.3mph /  6.9km/h 64% 0.00in /  0mm
23:54 83.3 °F /  28.5 °C 69.8 °F /  21 °C 29.79in /  1008.7hPa South 5.8mph /  9.3km/h 2.9mph /  4.7km/h 64% 0.00in /  0mm
23:59 83.2 °F /  28.4 °C 69.8 °F /  21 °C 29.79in /  1008.7hPa North 5.8mph /  9.3km/h 3.1mph /  5km/h 64% 0.00in /  0mm
Live Lenexa Weather
Compliments of Weather Underground - 1.75 mb